createdAt,value
2018-12-01T00:00:43.115Z,16.13
2018-12-01T00:03:12.678Z,15.17
2018-12-01T00:05:43.693Z,16.80
2018-12-01T00:08:13.233Z,14.30
2018-12-01T00:10:42.736Z,16.17
2018-12-01T00:13:12.261Z,14.83
2018-12-01T00:15:41.767Z,14.17
2018-12-01T00:18:11.331Z,15.43
2018-12-01T00:20:40.829Z,15.60
2018-12-01T00:23:10.370Z,14.73
2018-12-01T00:25:39.906Z,14.23
2018-12-01T00:28:09.417Z,17.60
2018-12-01T00:30:38.909Z,15.30
2018-12-01T00:33:08.482Z,16.27
2018-12-01T00:35:38.006Z,19.17
2018-12-01T00:38:07.840Z,16.93
2018-12-01T00:40:37.373Z,16.70
2018-12-01T00:43:07.113Z,14.53
2018-12-01T00:45:36.628Z,16.47
2018-12-01T00:48:06.164Z,17.90
2018-12-01T00:50:35.708Z,17.10
2018-12-01T00:53:05.524Z,16.53
2018-12-01T00:55:35.018Z,15.73
2018-12-01T00:58:04.584Z,17.93
2018-12-01T01:00:34.109Z,16.93
2018-12-01T01:03:03.656Z,16.20
2018-12-01T01:05:33.197Z,15.70
2018-12-01T01:08:02.704Z,15.47
2018-12-01T01:10:34.624Z,18.37
2018-12-01T01:13:02.997Z,16.17
2018-12-01T01:15:32.554Z,18.27
2018-12-01T01:18:02.069Z,21.30
2018-12-01T01:20:31.638Z,16.97
2018-12-01T01:23:01.132Z,15.87
2018-12-01T01:25:30.677Z,15.37
2018-12-01T01:28:00.262Z,15.13
2018-12-01T01:30:29.905Z,15.37
2018-12-01T01:33:10.217Z,15.03
2018-12-01T01:35:39.716Z,16.83
2018-12-01T01:38:09.257Z,14.70
2018-12-01T01:40:38.796Z,14.07
2018-12-01T01:43:08.365Z,17.00
2018-12-01T01:45:37.916Z,15.17
2018-12-01T01:48:07.509Z,16.70
2018-12-01T01:50:37.065Z,16.27
2018-12-01T01:53:06.593Z,17.00
2018-12-01T01:55:36.146Z,13.57
2018-12-01T01:58:05.816Z,13.87
2018-12-01T02:00:35.410Z,14.53
2018-12-01T02:03:04.966Z,15.30
2018-12-01T02:05:34.477Z,13.80
2018-12-01T02:08:04.018Z,13.50
2018-12-01T02:10:33.558Z,16.63
2018-12-01T02:13:03.077Z,17.30
2018-12-01T02:15:32.630Z,15.53
2018-12-01T02:18:02.209Z,16.17
2018-12-01T02:20:31.874Z,17.27
2018-12-01T02:23:01.372Z,15.83
2018-12-01T02:25:30.916Z,13.63
2018-12-01T02:28:00.428Z,14.30
2018-12-01T02:30:29.980Z,13.77
2018-12-01T02:32:59.486Z,14.67
2018-12-01T02:35:29.790Z,13.03
2018-12-01T02:37:59.290Z,11.80
2018-12-01T02:40:28.899Z,14.07
2018-12-01T02:42:58.396Z,13.73
2018-12-01T02:45:38.721Z,12.83
2018-12-01T02:48:08.238Z,14.03
2018-12-01T02:50:37.789Z,13.50
2018-12-01T02:53:07.293Z,13.60
2018-12-01T02:55:36.816Z,12.90
2018-12-01T02:58:06.625Z,12.43
2018-12-01T03:00:36.144Z,13.40
2018-12-01T03:03:05.930Z,33.33
2018-12-01T03:05:35.441Z,15.13
2018-12-01T03:08:05.025Z,12.60
2018-12-01T03:10:34.587Z,14.27
2018-12-01T03:13:04.123Z,11.97
2018-12-01T03:15:33.713Z,11.87
2018-12-01T03:18:03.251Z,11.90
2018-12-01T03:20:32.800Z,11.40
2018-12-01T03:23:02.381Z,10.33
2018-12-01T03:25:31.920Z,11.63
2018-12-01T03:28:01.461Z,11.17
2018-12-01T03:30:31.009Z,11.67
2018-12-01T03:33:00.502Z,11.67
2018-12-01T03:35:30.032Z,11.07
2018-12-01T03:37:59.555Z,11.57
2018-12-01T03:40:33.161Z,12.07
2018-12-01T03:43:02.706Z,12.13
2018-12-01T03:45:32.180Z,10.53
2018-12-01T03:48:01.702Z,11.67
2018-12-01T03:50:31.295Z,11.37
2018-12-01T03:53:00.781Z,13.37
2018-12-01T03:55:34.229Z,11.20
2018-12-01T03:58:04.192Z,13.77
2018-12-01T04:00:35.352Z,11.13
2018-12-01T04:03:06.551Z,13.63
2018-12-01T04:05:36.100Z,12.50
2018-12-01T04:08:05.767Z,11.50
2018-12-01T04:10:35.300Z,11.77
2018-12-01T04:13:05.036Z,11.67
2018-12-01T04:15:34.589Z,15.10
2018-12-01T04:18:04.160Z,11.47
2018-12-01T04:20:33.710Z,11.83
2018-12-01T04:23:03.205Z,11.93
2018-12-01T04:25:32.760Z,15.50
2018-12-01T04:28:02.304Z,12.00
2018-12-01T04:30:31.813Z,11.37
2018-12-01T04:33:01.370Z,11.13
2018-12-01T04:35:30.927Z,11.17
2018-12-01T04:38:00.504Z,10.47
2018-12-01T04:40:30.025Z,11.50
2018-12-01T04:42:59.556Z,11.77
2018-12-01T04:45:29.068Z,14.40
2018-12-01T04:47:58.633Z,12.00
2018-12-01T04:50:28.109Z,12.97
2018-12-01T04:52:57.637Z,14.00
2018-12-01T04:55:27.128Z,14.20
2018-12-01T04:57:56.653Z,12.70
2018-12-01T05:00:26.179Z,13.93
2018-12-01T05:02:55.660Z,12.13
2018-12-01T05:05:25.209Z,13.20
2018-12-01T05:07:54.732Z,14.27
2018-12-01T05:10:24.339Z,11.90
2018-12-01T05:12:53.885Z,11.53
2018-12-01T05:15:23.393Z,13.10
2018-12-01T05:17:52.923Z,12.57
2018-12-01T05:20:24.093Z,12.53
2018-12-01T05:22:54.169Z,11.97
2018-12-01T05:25:23.651Z,12.03
2018-12-01T05:27:53.174Z,12.43
2018-12-01T05:30:22.666Z,11.13
2018-12-01T05:32:52.204Z,11.53
2018-12-01T05:35:22.571Z,13.00
2018-12-01T05:37:52.131Z,14.17
2018-12-01T05:40:21.959Z,11.37
2018-12-01T05:42:51.496Z,11.73
2018-12-01T05:45:21.971Z,13.63
2018-12-01T05:47:52.052Z,11.73
2018-12-01T05:50:22.437Z,13.83
2018-12-01T05:52:53.725Z,12.90
2018-12-01T05:55:23.249Z,13.47
2018-12-01T05:57:53.270Z,17.57
2018-12-01T06:00:22.903Z,27.00
2018-12-01T06:02:52.432Z,34.67
2018-12-01T06:05:21.912Z,24.30
2018-12-01T06:07:51.473Z,21.70
2018-12-01T06:10:24.080Z,40.53
2018-12-01T06:12:54.193Z,32.57
2018-12-01T06:15:23.762Z,21.43
2018-12-01T06:17:53.334Z,19.87
2018-12-01T06:20:23.724Z,24.93
2018-12-01T06:22:53.285Z,16.77
2018-12-01T06:25:24.455Z,14.97
2018-12-01T06:27:53.982Z,16.20
2018-12-01T06:30:23.490Z,15.93
2018-12-01T06:32:53.313Z,23.50
2018-12-01T06:35:22.820Z,23.40
2018-12-01T06:37:52.302Z,29.90
2018-12-01T06:40:22.179Z,20.13
2018-12-01T06:42:51.745Z,23.27
2018-12-01T06:45:21.285Z,19.50
2018-12-01T06:47:50.804Z,17.97
2018-12-01T06:50:21.657Z,17.47
2018-12-01T06:52:51.964Z,15.50
2018-12-01T06:55:22.046Z,17.90
2018-12-01T06:57:51.580Z,17.80
2018-12-01T07:00:23.302Z,19.07
2018-12-01T07:02:53.576Z,17.90
2018-12-01T07:05:23.109Z,16.87
2018-12-01T07:07:52.602Z,21.17
2018-12-01T07:10:22.898Z,25.27
2018-12-01T07:13:01.393Z,23.93
2018-12-01T07:15:34.237Z,24.87
2018-12-01T07:18:13.474Z,21.07
2018-12-01T07:20:43.073Z,19.60
2018-12-01T07:23:12.588Z,22.40
2018-12-01T07:25:42.103Z,28.03
2018-12-01T07:28:11.721Z,22.80
2018-12-01T07:30:41.355Z,25.93
2018-12-01T07:33:10.836Z,24.37
2018-12-01T07:35:40.404Z,31.13
2018-12-01T07:38:09.924Z,30.80
2018-12-01T07:40:39.462Z,31.20
2018-12-01T07:43:08.955Z,32.87
2018-12-01T07:45:38.513Z,33.90
2018-12-01T07:48:08.073Z,32.10
2018-12-01T07:50:37.632Z,33.53
2018-12-01T07:53:07.504Z,39.60
2018-12-01T07:55:37.033Z,37.73
2018-12-01T07:58:06.552Z,37.80
2018-12-01T08:00:36.100Z,42.60
2018-12-01T08:03:05.732Z,39.30
2018-12-01T08:05:35.269Z,45.23
2018-12-01T08:08:04.813Z,44.33
2018-12-01T08:10:34.338Z,53.17
2018-12-01T08:13:03.919Z,59.97
2018-12-01T08:15:33.405Z,49.87
2018-12-01T08:18:02.933Z,51.20
2018-12-01T08:20:32.484Z,46.33
2018-12-01T08:23:02.080Z,50.90
2018-12-01T08:25:31.564Z,55.90
2018-12-01T08:28:01.119Z,51.30
2018-12-01T08:30:32.093Z,50.43
2018-12-01T08:33:01.605Z,51.07
2018-12-01T08:35:31.361Z,39.83
2018-12-01T08:38:00.854Z,49.13
2018-12-01T08:40:31.346Z,51.53
2018-12-01T08:43:00.836Z,48.60
2018-12-01T08:45:30.369Z,51.33
2018-12-01T08:47:59.850Z,49.33
2018-12-01T08:50:29.401Z,44.43
2018-12-01T08:52:58.918Z,48.57
2018-12-01T08:55:28.457Z,48.87
2018-12-01T08:57:58.030Z,49.70
2018-12-01T09:00:33.228Z,51.03
2018-12-01T09:03:08.592Z,48.83
2018-12-01T09:05:38.149Z,49.90
2018-12-01T09:08:07.670Z,51.40
2018-12-01T09:10:37.253Z,49.03
2018-12-01T09:13:06.804Z,50.00
2018-12-01T09:15:37.368Z,48.40
2018-12-01T09:18:07.050Z,46.83
2018-12-01T09:20:36.540Z,50.23
2018-12-01T09:23:06.370Z,52.80
2018-12-01T09:25:35.856Z,53.10
2018-12-01T09:28:05.725Z,51.77
2018-12-01T09:30:36.232Z,51.87
2018-12-01T09:33:06.143Z,52.37
2018-12-01T09:35:35.796Z,50.00
2018-12-01T09:38:05.375Z,50.27
2018-12-01T09:40:35.516Z,50.73
2018-12-01T09:43:05.212Z,52.07
2018-12-01T09:45:34.744Z,55.77
2018-12-01T09:48:04.267Z,46.40
2018-12-01T09:50:33.816Z,54.87
2018-12-01T09:53:03.326Z,56.40
2018-12-01T09:55:33.117Z,51.20
2018-12-01T09:58:02.651Z,50.40
2018-12-01T10:00:33.049Z,52.57
2018-12-01T10:03:04.822Z,55.20
2018-12-01T10:05:34.660Z,58.80
2018-12-01T10:08:04.233Z,63.97
2018-12-01T10:10:33.794Z,51.90
2018-12-01T10:13:03.340Z,54.97
2018-12-01T10:15:35.236Z,57.23
2018-12-01T10:18:05.314Z,62.40
2018-12-01T10:20:35.513Z,50.43
2018-12-01T10:23:09.973Z,55.80
2018-12-01T10:25:39.575Z,52.67
2018-12-01T10:28:10.371Z,70.57
2018-12-01T10:30:39.881Z,79.30
2018-12-01T10:33:09.440Z,53.33
2018-12-01T10:35:38.989Z,49.93
2018-12-01T10:38:11.036Z,49.50
2018-12-01T10:40:40.562Z,52.73
2018-12-01T10:43:10.201Z,49.33
2018-12-01T10:45:39.741Z,50.17
2018-12-01T10:48:10.061Z,47.53
2018-12-01T10:50:39.809Z,47.67
2018-12-01T10:53:09.374Z,49.03
2018-12-01T10:55:38.952Z,46.13
2018-12-01T10:58:11.609Z,47.07
2018-12-01T11:00:47.135Z,47.27
2018-12-01T11:03:21.651Z,47.17
2018-12-01T11:05:51.384Z,47.87
2018-12-01T11:08:21.041Z,46.17
2018-12-01T11:10:55.261Z,49.83
2018-12-01T11:13:20.136Z,50.30
2018-12-01T11:15:49.705Z,50.67
2018-12-01T11:18:19.278Z,50.30
2018-12-01T11:20:48.874Z,48.67
2018-12-01T11:23:18.618Z,48.80
2018-12-01T11:25:48.183Z,47.73
2018-12-01T11:28:17.756Z,47.67
2018-12-01T11:30:47.293Z,53.53
2018-12-01T11:33:16.852Z,57.43
2018-12-01T11:35:46.470Z,53.13
2018-12-01T11:38:16.041Z,48.53
2018-12-01T11:40:45.737Z,50.30
2018-12-01T11:43:15.566Z,50.53
2018-12-01T11:45:45.158Z,45.63
2018-12-01T11:48:14.712Z,48.60
2018-12-01T11:50:44.292Z,50.80
2018-12-01T11:53:13.817Z,48.80
2018-12-01T11:55:43.380Z,49.93
2018-12-01T11:58:12.930Z,61.47
2018-12-01T12:00:42.433Z,48.57
2018-12-01T12:03:12.026Z,48.70
2018-12-01T12:05:41.605Z,52.40
2018-12-01T12:08:26.316Z,43.13
2018-12-01T12:10:55.980Z,47.37
2018-12-01T12:13:27.258Z,50.97
2018-12-01T12:15:57.040Z,48.43
2018-12-01T12:18:26.644Z,45.23
2018-12-01T12:20:56.160Z,49.50
2018-12-01T12:23:25.709Z,44.57
2018-12-01T12:25:55.320Z,50.33
2018-12-01T12:28:24.873Z,46.90
2018-12-01T12:30:54.506Z,45.63
2018-12-01T12:33:24.172Z,47.43
2018-12-01T12:35:53.746Z,51.37
2018-12-01T12:38:23.309Z,46.30
2018-12-01T12:40:52.861Z,46.50
2018-12-01T12:43:22.459Z,44.60
2018-12-01T12:45:51.959Z,46.47
2018-12-01T12:48:21.482Z,41.73
2018-12-01T12:50:53.271Z,42.23
2018-12-01T12:53:20.552Z,43.53
2018-12-01T12:55:50.130Z,53.63
2018-12-01T12:58:19.693Z,42.80
2018-12-01T13:00:49.199Z,43.63
2018-12-01T13:03:18.742Z,41.87
2018-12-01T13:05:48.613Z,41.93
2018-12-01T13:08:19.082Z,42.47
2018-12-01T13:10:48.707Z,40.30
2018-12-01T13:13:18.277Z,38.43
2018-12-01T13:15:47.786Z,43.77
2018-12-01T13:18:17.333Z,45.00
2018-12-01T13:20:47.677Z,45.17
2018-12-01T13:23:17.216Z,46.07
2018-12-01T13:25:46.738Z,42.27
2018-12-01T13:28:19.788Z,43.93
2018-12-01T13:30:52.543Z,43.43
2018-12-01T13:33:22.166Z,43.20
2018-12-01T13:35:51.707Z,44.13
2018-12-01T13:38:21.308Z,43.03
2018-12-01T13:40:50.877Z,44.30
2018-12-01T13:43:20.433Z,43.07
2018-12-01T13:45:49.977Z,43.90
2018-12-01T13:48:19.619Z,39.63
2018-12-01T13:50:49.178Z,42.47
2018-12-01T13:53:18.850Z,39.70
2018-12-01T13:55:48.356Z,42.20
2018-12-01T13:58:17.904Z,42.53
2018-12-01T14:00:47.446Z,43.23
2018-12-01T14:03:17.001Z,42.77
2018-12-01T14:05:46.569Z,42.27
2018-12-01T14:08:16.094Z,44.77
2018-12-01T14:10:49.157Z,42.37
2018-12-01T14:13:18.672Z,42.77
2018-12-01T14:15:48.240Z,40.33
2018-12-01T14:18:17.800Z,39.23
2018-12-01T14:20:47.381Z,42.07
2018-12-01T14:23:16.962Z,39.07
2018-12-01T14:25:46.485Z,38.63
2018-12-01T14:28:16.032Z,41.27
2018-12-01T14:30:45.522Z,39.40
2018-12-01T14:33:16.343Z,41.70
2018-12-01T14:35:44.633Z,37.90
2018-12-01T14:38:15.367Z,38.73
2018-12-01T14:40:46.939Z,38.70
2018-12-01T14:43:16.558Z,38.83
2018-12-01T14:45:47.391Z,39.10
2018-12-01T14:48:16.897Z,39.70
2018-12-01T14:50:48.690Z,40.80
2018-12-01T14:53:16.964Z,40.03
2018-12-01T14:55:46.534Z,37.50
2018-12-01T14:58:16.068Z,41.27
2018-12-01T15:00:45.577Z,42.83
2018-12-01T15:03:15.141Z,41.30
2018-12-01T15:05:44.641Z,42.57
2018-12-01T15:08:14.229Z,44.73
2018-12-01T15:10:43.717Z,45.87
2018-12-01T15:13:13.284Z,46.30
2018-12-01T15:15:42.819Z,49.00
2018-12-01T15:18:12.373Z,41.30
2018-12-01T15:20:41.868Z,45.47
2018-12-01T15:23:11.431Z,46.03
2018-12-01T15:25:40.948Z,47.97
2018-12-01T15:28:10.532Z,46.53
2018-12-01T15:30:40.074Z,52.53
2018-12-01T15:33:12.503Z,46.33
2018-12-01T15:35:42.947Z,49.03
2018-12-01T15:38:12.594Z,51.93
2018-12-01T15:40:44.527Z,51.13
2018-12-01T15:43:14.081Z,47.70
2018-12-01T15:45:43.656Z,50.07
2018-12-01T15:48:13.348Z,51.17
2018-12-01T15:50:42.920Z,52.10
2018-12-01T15:53:13.547Z,50.27
2018-12-01T15:55:43.360Z,56.47
2018-12-01T15:58:12.990Z,66.10
2018-12-01T16:00:43.242Z,60.47
2018-12-01T16:03:12.789Z,63.37
2018-12-01T16:05:42.439Z,57.47
2018-12-01T16:08:12.321Z,59.60
2018-12-01T16:10:41.897Z,62.37
2018-12-01T16:13:14.732Z,55.10
2018-12-01T16:15:46.395Z,63.90
2018-12-01T16:18:16.002Z,59.63
2018-12-01T16:20:45.536Z,57.10
2018-12-01T16:23:15.127Z,61.40
2018-12-01T16:25:44.655Z,62.03
2018-12-01T16:28:14.189Z,72.63
2018-12-01T16:30:44.972Z,68.43
2018-12-01T16:33:18.928Z,83.00
2018-12-01T16:35:48.503Z,62.03
2018-12-01T16:38:21.530Z,64.17
2018-12-01T16:40:54.890Z,64.47
2018-12-01T16:43:24.689Z,59.30
2018-12-01T16:45:54.445Z,60.13
2018-12-01T16:48:23.936Z,65.77
2018-12-01T16:50:53.556Z,70.00
2018-12-01T16:53:23.532Z,64.90
2018-12-01T16:55:53.046Z,62.57
2018-12-01T16:58:22.621Z,66.90
2018-12-01T17:00:52.153Z,60.20
2018-12-01T17:03:21.729Z,69.40
2018-12-01T17:05:53.714Z,68.90
2018-12-01T17:08:23.282Z,69.87
2018-12-01T17:10:52.887Z,64.13
2018-12-01T17:13:22.453Z,72.37
2018-12-01T17:15:52.030Z,66.67
2018-12-01T17:18:21.625Z,62.73
2018-12-01T17:20:51.136Z,69.23
2018-12-01T17:23:20.713Z,71.43
2018-12-01T17:25:50.296Z,73.43
2018-12-01T17:28:20.566Z,71.77
2018-12-01T17:30:50.400Z,65.40
2018-12-01T17:33:20.098Z,62.70
2018-12-01T17:35:49.589Z,74.07
2018-12-01T17:38:20.392Z,71.27
2018-12-01T17:41:00.722Z,70.47
2018-12-01T17:43:36.063Z,69.77
2018-12-01T17:46:05.897Z,75.07
2018-12-01T17:48:35.478Z,80.00
2018-12-01T17:51:05.137Z,77.10
2018-12-01T17:53:34.658Z,80.43
2018-12-01T17:56:04.294Z,83.33
2018-12-01T17:58:33.881Z,79.27
2018-12-01T18:01:03.429Z,81.00
2018-12-01T18:03:32.923Z,82.37
2018-12-01T18:06:02.629Z,84.80
2018-12-01T18:08:32.192Z,90.67
2018-12-01T18:11:01.689Z,85.77
2018-12-01T18:13:31.168Z,89.93
2018-12-01T18:16:00.721Z,83.93
2018-12-01T18:18:30.213Z,79.10
2018-12-01T18:20:59.764Z,90.97
2018-12-01T18:23:29.260Z,85.10
2018-12-01T18:25:58.847Z,91.07
2018-12-01T18:28:31.313Z,78.23
2018-12-01T18:31:00.854Z,82.40
2018-12-01T18:33:34.355Z,78.10
2018-12-01T18:36:03.885Z,79.63
2018-12-01T18:38:33.432Z,79.10
2018-12-01T18:41:02.930Z,100.57
2018-12-01T18:43:32.486Z,93.27
2018-12-01T18:46:03.368Z,90.87
2018-12-01T18:48:32.909Z,85.13
2018-12-01T18:51:02.392Z,90.17
2018-12-01T18:53:31.924Z,92.20
2018-12-01T18:56:01.427Z,96.23
2018-12-01T18:58:30.973Z,87.33
2018-12-01T19:01:00.576Z,83.73
2018-12-01T19:03:32.653Z,83.83
2018-12-01T19:06:02.150Z,90.50
2018-12-01T19:08:31.672Z,88.17
2018-12-01T19:11:01.219Z,88.07
2018-12-01T19:13:30.701Z,94.00
2018-12-01T19:16:00.247Z,96.03
2018-12-01T19:18:29.781Z,96.50
2018-12-01T19:20:59.324Z,96.83
2018-12-01T19:23:28.826Z,97.80
2018-12-01T19:25:58.405Z,93.57
2018-12-01T19:28:27.945Z,102.87
2018-12-01T19:30:57.461Z,99.07
2018-12-01T19:33:26.987Z,97.90
2018-12-01T19:35:56.520Z,95.50
2018-12-01T19:38:28.012Z,99.73
2018-12-01T19:40:58.768Z,107.53
2018-12-01T19:43:28.325Z,99.03
2018-12-01T19:45:57.889Z,107.87
2018-12-01T19:48:27.434Z,105.90
2018-12-01T19:50:57.052Z,101.43
2018-12-01T19:53:26.550Z,105.33
2018-12-01T19:55:56.109Z,95.13
2018-12-01T19:58:27.912Z,93.77
2018-12-01T20:00:58.309Z,105.23
2018-12-01T20:03:30.029Z,86.97
2018-12-01T20:05:59.604Z,96.37
2018-12-01T20:08:29.146Z,87.50
2018-12-01T20:11:02.370Z,89.53
2018-12-01T20:13:37.649Z,85.43
2018-12-01T20:16:22.312Z,86.53
2018-12-01T20:18:52.345Z,94.60
2018-12-01T20:21:22.339Z,95.23
2018-12-01T20:23:51.894Z,84.93
2018-12-01T20:26:21.420Z,88.20
2018-12-01T20:28:51.068Z,90.03
2018-12-01T20:31:20.616Z,84.57
2018-12-01T20:33:51.064Z,84.47
2018-12-01T20:36:23.384Z,84.10
2018-12-01T20:39:33.957Z,86.80
2018-12-01T20:42:03.469Z,91.10
2018-12-01T20:44:33.003Z,88.87
2018-12-01T20:47:02.534Z,92.23
2018-12-01T20:49:32.072Z,92.57
2018-12-01T20:52:01.581Z,97.13
2018-12-01T20:54:37.707Z,93.63
2018-12-01T20:57:17.502Z,95.87
2018-12-01T20:59:47.009Z,89.37
2018-12-01T21:02:16.540Z,79.10
2018-12-01T21:04:46.064Z,92.67
2018-12-01T21:07:15.574Z,87.67
2018-12-01T21:09:45.109Z,80.17
2018-12-01T21:12:15.223Z,86.27
2018-12-01T21:14:44.753Z,78.40
2018-12-01T21:17:14.281Z,89.40
2018-12-01T21:19:43.794Z,78.97
2018-12-01T21:22:13.328Z,73.77
2018-12-01T21:24:42.817Z,72.20
2018-12-01T21:27:12.341Z,76.40
2018-12-01T21:29:41.886Z,74.37
2018-12-01T21:32:11.392Z,72.80
2018-12-01T21:34:40.909Z,61.33
2018-12-01T21:37:10.407Z,69.50
2018-12-01T21:39:39.945Z,71.87
2018-12-01T21:42:09.446Z,83.00
2018-12-01T21:44:38.985Z,92.87
2018-12-01T21:47:09.350Z,91.17
2018-12-01T21:49:38.864Z,96.77
2018-12-01T21:52:08.944Z,83.60
2018-12-01T21:54:38.465Z,84.33
2018-12-01T21:57:07.977Z,95.77
2018-12-01T21:59:37.508Z,87.33
2018-12-01T22:02:07.956Z,92.57
2018-12-01T22:04:37.524Z,86.10
2018-12-01T22:07:07.053Z,76.80
2018-12-01T22:09:36.577Z,83.20
2018-12-01T22:12:06.351Z,77.50
2018-12-01T22:14:35.844Z,73.20
2018-12-01T22:17:05.672Z,79.67
2018-12-01T22:19:35.148Z,78.07
2018-12-01T22:22:04.793Z,77.40
2018-12-01T22:24:34.300Z,85.20
2018-12-01T22:27:03.837Z,87.20
2018-12-01T22:29:33.336Z,81.57
2018-12-01T22:32:02.885Z,89.70
2018-12-01T22:34:32.477Z,85.20
2018-12-01T22:37:02.060Z,85.10
2018-12-01T22:39:31.552Z,79.80
2018-12-01T22:42:01.117Z,78.23
2018-12-01T22:44:30.636Z,75.67
2018-12-01T22:47:00.252Z,75.77
2018-12-01T22:49:29.746Z,69.17
2018-12-01T22:51:59.292Z,73.43
2018-12-01T22:54:28.786Z,68.40
2018-12-01T22:56:58.318Z,67.47
2018-12-01T22:59:27.873Z,71.27
2018-12-01T23:01:57.440Z,67.70
2018-12-01T23:04:26.969Z,68.73
2018-12-01T23:06:56.524Z,67.60
2018-12-01T23:09:26.062Z,69.33
2018-12-01T23:11:56.744Z,64.23
2018-12-01T23:14:25.137Z,63.50
2018-12-01T23:16:54.655Z,67.97
2018-12-01T23:19:24.197Z,65.97
2018-12-01T23:21:53.696Z,68.67
2018-12-01T23:24:23.225Z,61.03
2018-12-01T23:26:52.752Z,65.43
2018-12-01T23:29:22.296Z,68.83
2018-12-01T23:31:51.800Z,69.33
2018-12-01T23:34:21.337Z,63.13
2018-12-01T23:36:50.889Z,63.80
2018-12-01T23:39:20.408Z,64.40
2018-12-01T23:41:49.968Z,66.83
2018-12-01T23:44:33.909Z,62.27
2018-12-01T23:47:03.437Z,65.70
2018-12-01T23:49:32.957Z,62.50
2018-12-01T23:52:02.505Z,73.00
2018-12-01T23:54:32.008Z,71.77
2018-12-01T23:57:01.533Z,70.17
2018-12-01T23:59:31.032Z,64.90
